createdAt,value
2018-12-17T00:01:29.498Z,76.73
2018-12-17T00:03:57.805Z,76.80
2018-12-17T00:06:26.142Z,77.18
2018-12-17T00:08:54.513Z,77.55
2018-12-17T00:11:22.882Z,78.82
2018-12-17T00:13:51.253Z,78.58
2018-12-17T00:16:19.563Z,78.00
2018-12-17T00:18:47.845Z,77.83
2018-12-17T00:21:16.277Z,77.97
2018-12-17T00:23:44.624Z,77.32
2018-12-17T00:26:13.346Z,77.69
2018-12-17T00:28:41.674Z,78.79
2018-12-17T00:31:10.696Z,78.99
2018-12-17T00:33:39.022Z,78.89
2018-12-17T00:36:07.422Z,78.05
2018-12-17T00:38:35.744Z,77.41
2018-12-17T00:41:04.622Z,76.81
2018-12-17T00:43:33.554Z,76.96
2018-12-17T00:46:01.897Z,77.66
2018-12-17T00:48:30.420Z,77.56
2018-12-17T00:50:58.942Z,77.65
2018-12-17T00:53:27.245Z,78.99
2018-12-17T00:55:55.584Z,78.05
2018-12-17T00:58:23.906Z,77.92
2018-12-17T01:00:52.189Z,78.49
2018-12-17T01:03:20.499Z,78.28
2018-12-17T01:05:48.962Z,79.04
2018-12-17T01:08:17.251Z,79.92
2018-12-17T01:10:45.580Z,80.21
2018-12-17T01:13:13.885Z,80.43
2018-12-17T01:15:42.190Z,79.69
2018-12-17T01:18:10.589Z,80.84
2018-12-17T01:20:38.935Z,79.70
2018-12-17T01:23:07.208Z,80.33
2018-12-17T01:25:35.536Z,81.84
2018-12-17T01:28:04.209Z,81.38
2018-12-17T01:30:33.326Z,80.37
2018-12-17T01:33:01.653Z,80.45
2018-12-17T01:35:29.987Z,80.06
2018-12-17T01:37:58.364Z,79.33
2018-12-17T01:40:26.823Z,79.35
2018-12-17T01:42:55.297Z,78.63
2018-12-17T01:45:23.628Z,78.27
2018-12-17T01:47:51.916Z,78.90
2018-12-17T01:50:21.618Z,78.62
2018-12-17T01:52:50.031Z,78.76
2018-12-17T01:55:18.380Z,78.93
2018-12-17T01:57:46.705Z,79.02
2018-12-17T02:00:15.040Z,78.68
2018-12-17T02:02:43.357Z,78.53
2018-12-17T02:05:11.669Z,79.17
2018-12-17T02:07:39.984Z,79.18
2018-12-17T02:10:08.350Z,77.68
2018-12-17T02:12:36.744Z,77.79
2018-12-17T02:15:06.101Z,77.21
2018-12-17T02:17:34.497Z,78.03
2018-12-17T02:20:04.406Z,77.42
2018-12-17T02:22:32.777Z,77.13
2018-12-17T02:25:01.067Z,76.41
2018-12-17T02:27:29.423Z,76.67
2018-12-17T02:29:57.757Z,77.49
2018-12-17T02:32:26.069Z,76.98
2018-12-17T02:34:54.539Z,76.94
2018-12-17T02:37:22.851Z,77.38
2018-12-17T02:39:51.173Z,76.88
2018-12-17T02:42:19.550Z,76.85
2018-12-17T02:44:47.925Z,77.94
2018-12-17T02:47:16.252Z,77.80
2018-12-17T02:49:44.641Z,78.06
2018-12-17T02:52:12.962Z,78.81
2018-12-17T02:54:42.018Z,78.29
2018-12-17T02:57:10.569Z,78.84
2018-12-17T02:59:38.869Z,78.40
2018-12-17T03:02:07.351Z,78.55
2018-12-17T03:04:35.744Z,79.67
2018-12-17T03:07:04.144Z,79.82
2018-12-17T03:09:32.508Z,78.73
2018-12-17T03:12:00.952Z,78.61
2018-12-17T03:14:29.421Z,79.77
2018-12-17T03:16:57.776Z,78.43
2018-12-17T03:19:26.446Z,78.82
2018-12-17T03:21:54.725Z,80.07
2018-12-17T03:24:23.006Z,79.60
2018-12-17T03:26:51.389Z,79.09
2018-12-17T03:29:19.765Z,78.58
2018-12-17T03:31:48.449Z,78.81
2018-12-17T03:34:16.870Z,80.03
2018-12-17T03:36:45.212Z,80.32
2018-12-17T03:39:13.613Z,79.98
2018-12-17T03:41:42.080Z,80.40
2018-12-17T03:44:10.416Z,80.80
2018-12-17T03:46:38.743Z,80.54
2018-12-17T03:49:07.085Z,81.14
2018-12-17T03:51:35.397Z,79.95
2018-12-17T03:54:03.731Z,80.19
2018-12-17T03:56:32.087Z,79.30
2018-12-17T03:59:00.476Z,80.59
2018-12-17T04:01:28.999Z,79.78
2018-12-17T04:03:57.427Z,81.17
2018-12-17T04:06:25.829Z,80.61
2018-12-17T04:08:54.187Z,80.84
2018-12-17T04:11:22.560Z,81.66
2018-12-17T04:13:50.868Z,80.89
2018-12-17T04:16:19.206Z,81.00
2018-12-17T04:18:47.570Z,81.65
2018-12-17T04:21:15.910Z,82.10
2018-12-17T04:23:44.238Z,81.76
2018-12-17T04:26:12.992Z,81.71
2018-12-17T04:28:41.321Z,81.83
2018-12-17T04:31:09.646Z,82.47
2018-12-17T04:33:38.047Z,82.17
2018-12-17T04:36:06.381Z,82.04
2018-12-17T04:38:34.666Z,81.40
2018-12-17T04:41:02.962Z,81.53
2018-12-17T04:43:31.294Z,81.81
2018-12-17T04:45:59.604Z,82.17
2018-12-17T04:48:28.029Z,82.18
2018-12-17T04:50:56.329Z,82.22
2018-12-17T04:53:24.828Z,81.68
2018-12-17T04:55:53.292Z,81.03
2018-12-17T04:58:21.599Z,80.71
2018-12-17T05:00:49.891Z,80.81
2018-12-17T05:03:18.200Z,82.12
2018-12-17T05:05:46.560Z,81.21
2018-12-17T05:08:15.279Z,81.69
2018-12-17T05:10:44.261Z,81.36
2018-12-17T05:13:12.546Z,80.37
2018-12-17T05:15:40.882Z,81.04
2018-12-17T05:18:09.194Z,81.32
2018-12-17T05:20:37.476Z,80.83
2018-12-17T05:23:05.940Z,81.17
2018-12-17T05:25:34.289Z,80.48
2018-12-17T05:28:02.617Z,81.72
2018-12-17T05:30:30.992Z,81.40
2018-12-17T05:33:00.389Z,81.44
2018-12-17T05:35:28.692Z,81.48
2018-12-17T05:37:57.044Z,81.78
2018-12-17T05:40:25.348Z,82.61
2018-12-17T05:42:53.724Z,82.31
2018-12-17T05:45:22.017Z,82.97
2018-12-17T05:47:50.350Z,81.74
2018-12-17T05:50:18.649Z,82.28
2018-12-17T05:52:46.967Z,81.54
2018-12-17T05:55:15.675Z,81.98
2018-12-17T05:57:43.959Z,80.73
2018-12-17T06:00:12.348Z,81.54
2018-12-17T06:02:40.721Z,80.42
2018-12-17T06:05:09.075Z,81.67
2018-12-17T06:07:37.357Z,80.72
2018-12-17T06:10:05.874Z,80.53
2018-12-17T06:12:34.243Z,81.00
2018-12-17T06:15:02.529Z,81.04
2018-12-17T06:17:30.993Z,81.51
2018-12-17T06:19:59.348Z,81.56
2018-12-17T06:22:27.669Z,80.71
2018-12-17T06:24:56.026Z,81.64
2018-12-17T06:27:24.311Z,81.50
2018-12-17T06:29:52.618Z,80.96
2018-12-17T06:32:20.945Z,80.77
2018-12-17T06:34:49.233Z,80.67
2018-12-17T06:37:17.564Z,81.55
2018-12-17T06:39:45.967Z,82.10
2018-12-17T06:42:14.252Z,81.95
2018-12-17T06:44:42.548Z,81.95
2018-12-17T06:47:10.894Z,82.12
2018-12-17T06:49:39.192Z,82.38
2018-12-17T06:52:07.676Z,83.90
2018-12-17T06:54:36.151Z,83.23
2018-12-17T06:57:04.502Z,82.17
2018-12-17T06:59:32.825Z,82.11
2018-12-17T07:02:01.637Z,81.75
2018-12-17T07:04:29.979Z,83.02
2018-12-17T07:06:58.257Z,82.98
2018-12-17T07:09:26.584Z,82.49
2018-12-17T07:11:54.930Z,82.47
2018-12-17T07:14:23.222Z,83.33
2018-12-17T07:16:51.579Z,82.88
2018-12-17T07:19:19.875Z,82.87
2018-12-17T07:21:48.217Z,83.45
2018-12-17T07:24:16.620Z,83.19
2018-12-17T07:26:44.908Z,82.47
2018-12-17T07:29:13.225Z,82.05
2018-12-17T07:31:41.530Z,81.56
2018-12-17T07:34:09.837Z,81.96
2018-12-17T07:36:38.164Z,83.76
2018-12-17T07:39:08.288Z,82.50
2018-12-17T07:41:37.049Z,84.09
2018-12-17T07:44:05.342Z,84.40
2018-12-17T07:46:33.990Z,84.32
2018-12-17T07:49:02.362Z,83.28
2018-12-17T07:51:30.681Z,83.46
2018-12-17T07:53:58.990Z,82.25
2018-12-17T07:56:27.265Z,83.52
2018-12-17T08:01:30.177Z,83.29
2018-12-17T08:03:58.473Z,83.53
2018-12-17T08:06:26.795Z,84.39
2018-12-17T08:08:55.553Z,83.35
2018-12-17T08:11:23.873Z,83.32
2018-12-17T08:13:52.269Z,83.69
2018-12-17T08:16:20.584Z,82.75
2018-12-17T08:18:49.828Z,81.84
2018-12-17T08:21:18.369Z,81.87
2018-12-17T08:23:46.677Z,81.98
2018-12-17T08:26:15.175Z,81.28
2018-12-17T08:28:43.486Z,82.08
2018-12-17T08:31:12.253Z,81.88
2018-12-17T08:33:40.565Z,82.71
2018-12-17T08:36:08.927Z,81.50
2018-12-17T08:38:37.314Z,82.14
2018-12-17T08:41:05.622Z,82.70
2018-12-17T08:43:33.953Z,82.61
2018-12-17T08:46:02.334Z,82.00
2018-12-17T08:48:30.674Z,81.01
2018-12-17T08:50:59.021Z,80.93
2018-12-17T08:53:27.696Z,82.10
2018-12-17T08:55:56.039Z,81.87
2018-12-17T08:58:24.861Z,81.38
2018-12-17T09:00:53.200Z,82.34
2018-12-17T09:03:21.551Z,81.91
2018-12-17T09:05:49.834Z,81.96
2018-12-17T09:08:18.174Z,82.78
2018-12-17T09:10:46.522Z,82.23
2018-12-17T09:13:14.833Z,81.31
2018-12-17T09:15:43.504Z,81.34
2018-12-17T09:18:11.857Z,82.00
2018-12-17T09:20:40.183Z,83.05
2018-12-17T09:23:08.587Z,82.39
2018-12-17T09:25:36.913Z,81.77
2018-12-17T09:28:05.209Z,81.70
2018-12-17T09:30:33.650Z,81.07
2018-12-17T09:33:01.955Z,81.53
2018-12-17T09:35:30.323Z,82.44
2018-12-17T09:37:58.729Z,81.70
2018-12-17T09:40:27.159Z,83.14
2018-12-17T09:42:55.640Z,83.21
2018-12-17T09:45:23.957Z,82.96
2018-12-17T09:47:52.321Z,83.69
2018-12-17T09:50:20.648Z,84.21
2018-12-17T09:52:49.030Z,82.54
2018-12-17T09:55:17.351Z,82.63
2018-12-17T09:57:45.672Z,83.34
2018-12-17T10:00:14.102Z,82.26
2018-12-17T10:02:42.481Z,83.26
2018-12-17T10:05:10.886Z,83.21
2018-12-17T10:07:43.067Z,83.75
2018-12-17T10:10:11.402Z,83.95
2018-12-17T10:12:39.697Z,83.67
2018-12-17T10:15:08.095Z,82.78
2018-12-17T10:17:36.410Z,82.81
2018-12-17T10:20:05.922Z,82.53
2018-12-17T10:22:34.499Z,82.69
2018-12-17T10:25:02.850Z,83.17
2018-12-17T10:27:31.238Z,83.06
2018-12-17T10:29:59.611Z,82.46
2018-12-17T10:32:27.911Z,82.62
2018-12-17T10:34:56.228Z,83.80
2018-12-17T10:37:24.583Z,84.13
2018-12-17T10:39:52.914Z,83.52
2018-12-17T10:42:21.219Z,82.77
2018-12-17T10:44:49.906Z,84.14
2018-12-17T10:47:18.237Z,83.49
2018-12-17T10:49:46.583Z,82.69
2018-12-17T10:52:14.919Z,84.01
2018-12-17T10:54:43.249Z,84.14
2018-12-17T10:57:11.556Z,82.62
2018-12-17T10:59:39.945Z,82.10
2018-12-17T11:02:10.603Z,82.30
2018-12-17T11:04:40.841Z,82.59
2018-12-17T11:07:09.290Z,81.86
2018-12-17T11:09:37.645Z,82.41
2018-12-17T11:12:06.016Z,83.11
2018-12-17T11:14:34.414Z,81.38
2018-12-17T11:17:02.742Z,81.27
2018-12-17T11:19:31.085Z,82.94
2018-12-17T11:21:59.535Z,81.98
2018-12-17T11:24:27.918Z,80.77
2018-12-17T11:26:56.237Z,81.97
2018-12-17T11:29:25.032Z,84.02
2018-12-17T11:31:53.344Z,83.00
2018-12-17T11:34:21.661Z,83.59
2018-12-17T11:36:50.076Z,82.03
2018-12-17T11:39:18.390Z,82.92
2018-12-17T11:41:46.687Z,81.80
2018-12-17T11:44:15.021Z,80.82
2018-12-17T11:46:44.404Z,79.54
2018-12-17T11:49:12.954Z,80.44
2018-12-17T11:51:41.398Z,80.95
2018-12-17T11:54:09.722Z,81.07
2018-12-17T11:56:46.525Z,79.07
2018-12-17T11:59:14.857Z,79.00
2018-12-17T12:01:43.194Z,78.13
2018-12-17T12:04:11.548Z,78.67
2018-12-17T12:06:39.879Z,79.01
2018-12-17T12:09:08.219Z,80.04
2018-12-17T12:11:37.014Z,79.53
2018-12-17T12:14:05.298Z,79.63
2018-12-17T12:16:33.639Z,79.91
2018-12-17T12:19:02.073Z,81.53
2018-12-17T12:21:30.396Z,82.94
2018-12-17T12:23:58.674Z,81.85
2018-12-17T12:26:27.029Z,81.47
2018-12-17T12:28:55.345Z,80.93
2018-12-17T12:31:23.634Z,81.72
2018-12-17T12:33:52.299Z,80.56
2018-12-17T12:36:20.589Z,79.94
2018-12-17T12:38:48.948Z,79.75
2018-12-17T12:41:17.270Z,80.28
2018-12-17T12:43:45.632Z,80.25
2018-12-17T12:46:14.002Z,79.52
2018-12-17T12:48:42.424Z,79.46
2018-12-17T12:51:10.737Z,81.57
2018-12-17T12:53:39.050Z,81.64
2018-12-17T12:56:07.829Z,81.20
2018-12-17T12:58:36.129Z,80.06
2018-12-17T13:01:07.591Z,80.49
2018-12-17T13:03:35.195Z,80.03
2018-12-17T13:06:03.481Z,80.10
2018-12-17T13:08:31.793Z,81.67
2018-12-17T13:11:00.121Z,79.84
2018-12-17T13:13:29.181Z,80.03
2018-12-17T13:15:57.485Z,79.87
2018-12-17T13:18:25.953Z,80.72
2018-12-17T13:20:54.265Z,80.55
2018-12-17T13:23:22.680Z,80.18
2018-12-17T13:25:51.112Z,79.81
2018-12-17T13:28:19.432Z,80.82
2018-12-17T13:30:47.850Z,81.03
2018-12-17T13:33:16.223Z,80.08
2018-12-17T13:35:44.552Z,80.26
2018-12-17T13:38:12.857Z,81.08
2018-12-17T13:40:41.247Z,79.52
2018-12-17T13:43:09.589Z,79.12
2018-12-17T13:45:37.865Z,80.24
2018-12-17T13:48:06.214Z,80.18
2018-12-17T13:50:36.480Z,79.96
2018-12-17T13:53:11.103Z,78.68
2018-12-17T13:55:39.417Z,79.47
2018-12-17T13:58:07.792Z,79.70
2018-12-17T14:00:36.258Z,79.70
2018-12-17T14:03:04.632Z,80.55
2018-12-17T14:05:33.007Z,81.09
2018-12-17T14:08:01.333Z,82.25
2018-12-17T14:10:35.211Z,81.13
2018-12-17T14:13:03.631Z,81.22
2018-12-17T14:15:37.435Z,80.51
2018-12-17T14:18:07.857Z,79.95
2018-12-17T14:20:41.760Z,80.36
2018-12-17T14:23:10.105Z,78.77
2018-12-17T14:25:38.405Z,79.61
2018-12-17T14:28:06.710Z,79.44
2018-12-17T14:30:35.074Z,78.98
2018-12-17T14:33:03.396Z,77.98
2018-12-17T14:35:31.685Z,77.88
2018-12-17T14:38:03.520Z,78.40
2018-12-17T14:40:32.504Z,79.26
2018-12-17T14:43:00.857Z,79.24
2018-12-17T14:45:29.220Z,80.09
2018-12-17T14:47:57.544Z,79.90
2018-12-17T14:50:25.883Z,79.30
2018-12-17T14:52:54.216Z,79.49
2018-12-17T14:55:22.543Z,79.83
2018-12-17T14:57:50.850Z,79.95
2018-12-17T15:00:19.838Z,79.83
2018-12-17T15:02:48.149Z,78.81
2018-12-17T15:05:16.465Z,79.60
2018-12-17T15:07:44.757Z,79.19
2018-12-17T15:10:13.080Z,80.36
2018-12-17T15:12:41.357Z,79.67
2018-12-17T15:15:10.862Z,80.71
2018-12-17T15:17:39.137Z,80.26
2018-12-17T15:20:09.957Z,80.32
2018-12-17T15:22:38.442Z,80.29
2018-12-17T15:25:08.746Z,80.71
2018-12-17T15:27:37.101Z,80.34
2018-12-17T15:30:05.922Z,79.87
2018-12-17T15:32:34.367Z,79.08
2018-12-17T15:35:02.695Z,77.30
2018-12-17T15:37:31.055Z,78.09
2018-12-17T15:39:59.338Z,78.50
2018-12-17T15:42:27.736Z,78.46
2018-12-17T15:44:56.520Z,79.15
2018-12-17T15:47:24.826Z,79.56
2018-12-17T15:49:53.200Z,80.36
2018-12-17T15:52:21.544Z,80.64
2018-12-17T15:54:49.960Z,81.00
2018-12-17T15:57:18.596Z,80.17
2018-12-17T15:59:46.924Z,79.14
2018-12-17T16:02:15.259Z,79.22
2018-12-17T16:04:43.557Z,80.10
2018-12-17T16:07:11.990Z,80.25
2018-12-17T16:09:40.345Z,78.95
2018-12-17T16:12:08.700Z,79.48
2018-12-17T16:14:37.025Z,79.67
2018-12-17T16:17:05.364Z,79.96
2018-12-17T16:19:33.706Z,79.69
2018-12-17T16:22:02.051Z,80.73
2018-12-17T16:24:30.369Z,80.29
2018-12-17T16:26:58.689Z,79.59
2018-12-17T16:29:27.775Z,81.00
2018-12-17T16:31:57.393Z,81.00
2018-12-17T16:34:26.248Z,81.48
2018-12-17T16:36:54.646Z,81.00
2018-12-17T16:39:22.973Z,80.28
2018-12-17T16:41:51.292Z,80.23
2018-12-17T16:44:19.625Z,80.61
2018-12-17T16:46:48.084Z,81.28
2018-12-17T16:49:16.400Z,80.98
2018-12-17T16:51:45.340Z,81.20
2018-12-17T16:54:13.644Z,81.41
2018-12-17T16:56:42.011Z,80.12
2018-12-17T16:59:10.346Z,79.62
2018-12-17T17:01:38.641Z,79.98
2018-12-17T17:04:06.965Z,80.17
2018-12-17T17:06:35.370Z,79.97
2018-12-17T17:09:05.401Z,79.36
2018-12-17T17:11:33.800Z,80.55
2018-12-17T17:14:02.535Z,80.89
2018-12-17T17:16:30.850Z,80.17
2018-12-17T17:18:59.170Z,80.53
2018-12-17T17:21:27.575Z,81.04
2018-12-17T17:23:55.932Z,82.17
2018-12-17T17:26:24.263Z,81.79
2018-12-17T17:28:52.572Z,81.56
2018-12-17T17:31:21.357Z,80.89
2018-12-17T17:33:49.696Z,81.90
2018-12-17T17:36:18.117Z,82.43
2018-12-17T17:38:46.430Z,83.26
2018-12-17T17:41:14.774Z,82.49
2018-12-17T17:43:43.102Z,82.82
2018-12-17T17:46:11.435Z,83.13
2018-12-17T17:48:39.806Z,82.77
2018-12-17T17:51:08.239Z,82.84
2018-12-17T17:53:36.553Z,82.90
2018-12-17T17:56:04.933Z,82.88
2018-12-17T17:58:33.556Z,82.95
2018-12-17T18:01:01.875Z,83.48
2018-12-17T18:03:30.281Z,83.25
2018-12-17T18:06:00.383Z,84.25
2018-12-17T18:08:29.062Z,84.03
2018-12-17T18:10:57.375Z,84.62
2018-12-17T18:13:25.785Z,84.15
2018-12-17T18:15:54.079Z,84.87
2018-12-17T18:18:22.549Z,85.16
2018-12-17T18:20:51.061Z,85.15
2018-12-17T18:23:19.423Z,85.81
2018-12-17T18:25:47.767Z,83.96
2018-12-17T18:28:16.152Z,85.06
2018-12-17T18:30:44.540Z,83.87
2018-12-17T18:33:12.868Z,83.38
2018-12-17T18:35:41.267Z,84.19
2018-12-17T18:38:09.584Z,84.63
2018-12-17T18:40:38.633Z,84.08
2018-12-17T18:43:07.068Z,84.23
2018-12-17T18:45:35.463Z,85.55
2018-12-17T18:48:04.114Z,85.29
2018-12-17T18:50:32.529Z,84.42
2018-12-17T18:53:00.838Z,84.72
2018-12-17T18:55:29.209Z,85.48
2018-12-17T18:57:57.590Z,85.99
2018-12-17T19:00:25.963Z,85.17
2018-12-17T19:02:54.278Z,86.18
2018-12-17T19:05:22.712Z,86.47
2018-12-17T19:07:51.066Z,86.79
2018-12-17T19:10:19.383Z,86.97
2018-12-17T19:12:47.710Z,86.99
2018-12-17T19:15:16.063Z,87.38
2018-12-17T19:17:44.355Z,86.79
2018-12-17T19:20:21.171Z,86.43
2018-12-17T19:22:49.547Z,86.27
2018-12-17T19:25:18.466Z,85.12
2018-12-17T19:27:47.253Z,85.13
2018-12-17T19:30:15.604Z,85.93
2018-12-17T19:32:43.947Z,85.68
2018-12-17T19:35:12.323Z,85.58
2018-12-17T19:37:40.657Z,85.82
2018-12-17T19:40:09.502Z,86.17
2018-12-17T19:42:38.484Z,85.44
2018-12-17T19:45:07.143Z,85.66
2018-12-17T19:47:35.463Z,85.41
2018-12-17T19:50:06.349Z,85.67
2018-12-17T19:52:34.704Z,86.12
2018-12-17T19:55:03.048Z,85.87
2018-12-17T19:57:31.404Z,85.69
2018-12-17T19:59:59.710Z,85.53
2018-12-17T20:02:28.033Z,86.76
2018-12-17T20:04:56.385Z,87.75
2018-12-17T20:07:24.734Z,86.84
2018-12-17T20:09:53.007Z,86.36
2018-12-17T20:12:21.769Z,85.36
2018-12-17T20:14:50.064Z,86.40
2018-12-17T20:17:18.397Z,86.24
2018-12-17T20:19:46.817Z,86.62
2018-12-17T20:22:15.132Z,86.19
2018-12-17T20:24:43.441Z,86.57
2018-12-17T20:27:11.857Z,86.74
2018-12-17T20:29:40.164Z,86.30
2018-12-17T20:32:08.488Z,87.19
2018-12-17T20:34:37.233Z,87.49
2018-12-17T20:37:05.572Z,87.84
2018-12-17T20:39:33.903Z,88.31
2018-12-17T20:42:02.341Z,89.26
2018-12-17T20:44:30.694Z,87.89
2018-12-17T20:46:59.043Z,87.78
2018-12-17T20:49:27.773Z,86.96
2018-12-17T20:51:56.109Z,86.91
2018-12-17T20:54:24.781Z,86.32
2018-12-17T20:56:53.312Z,86.54
2018-12-17T20:59:21.645Z,86.42
2018-12-17T21:01:49.971Z,86.66
2018-12-17T21:04:18.339Z,87.14
2018-12-17T21:06:49.804Z,87.15
2018-12-17T21:09:17.010Z,87.17
2018-12-17T21:11:45.425Z,86.99
2018-12-17T21:14:13.730Z,87.28
2018-12-17T21:16:42.986Z,87.40
2018-12-17T21:19:11.518Z,86.53
2018-12-17T21:21:40.779Z,86.55
2018-12-17T21:24:09.177Z,85.57
2018-12-17T21:26:37.548Z,85.11
2018-12-17T21:29:05.995Z,84.90
2018-12-17T21:31:34.394Z,85.31
2018-12-17T21:34:02.745Z,86.25
2018-12-17T21:36:31.098Z,87.08
2018-12-17T21:38:59.496Z,87.01
2018-12-17T21:41:28.011Z,85.78
2018-12-17T21:43:56.322Z,85.61
2018-12-17T21:46:24.806Z,85.87
2018-12-17T21:48:53.157Z,85.22
2018-12-17T21:54:11.966Z,86.07
2018-12-17T21:56:40.359Z,86.11
2018-12-17T21:59:08.729Z,86.86
2018-12-17T22:01:37.300Z,85.82
2018-12-17T22:04:05.685Z,85.82
2018-12-17T22:06:33.990Z,85.05
2018-12-17T22:09:02.382Z,86.13
2018-12-17T22:11:30.801Z,85.72
2018-12-17T22:13:59.300Z,85.81
2018-12-17T22:16:28.529Z,86.18
2018-12-17T22:18:56.967Z,86.70
2018-12-17T22:21:25.325Z,87.04
2018-12-17T22:23:53.746Z,85.69
2018-12-17T22:26:22.099Z,85.90
2018-12-17T22:28:50.463Z,87.25
2018-12-17T22:31:18.976Z,88.09
2018-12-17T22:33:47.329Z,86.87
2018-12-17T22:36:15.663Z,86.32
2018-12-17T22:38:43.986Z,86.22
2018-12-17T22:41:12.403Z,86.18
2018-12-17T22:43:40.711Z,87.11
2018-12-17T22:46:09.376Z,86.33
2018-12-17T22:48:37.726Z,86.87
2018-12-17T22:51:06.164Z,88.06
2018-12-17T22:53:34.515Z,87.07
2018-12-17T22:56:02.825Z,87.54
2018-12-17T22:58:31.187Z,86.70
2018-12-17T23:00:59.607Z,86.08
2018-12-17T23:03:27.934Z,86.04
2018-12-17T23:05:56.326Z,85.81
2018-12-17T23:08:25.101Z,85.16
2018-12-17T23:11:11.278Z,86.90
2018-12-17T23:13:57.214Z,86.82
2018-12-17T23:16:43.380Z,87.02
2018-12-17T23:19:11.075Z,86.42
2018-12-17T23:21:39.443Z,84.96
2018-12-17T23:24:07.791Z,85.25
2018-12-17T23:26:36.702Z,85.03
2018-12-17T23:29:05.100Z,85.54
2018-12-17T23:31:33.396Z,85.81
2018-12-17T23:34:02.627Z,85.91
2018-12-17T23:36:31.154Z,85.56
2018-12-17T23:38:59.493Z,85.14
2018-12-17T23:41:27.851Z,86.15
2018-12-17T23:43:56.176Z,86.20
2018-12-17T23:46:24.471Z,86.34
2018-12-17T23:48:53.016Z,86.03
2018-12-17T23:51:21.347Z,86.17
2018-12-17T23:53:49.649Z,87.01
2018-12-17T23:56:18.048Z,87.12
2018-12-17T23:58:46.447Z,87.44
